sensor_id;sensor_type;location;lat;lon;timestamp;P1;durP1;ratioP1;P2;durP2;ratioP2
19291;SDS011;9779;51.756;7.450;2023-03-01T00:01:39;6.37;;;5.03;;
19291;SDS011;9779;51.756;7.450;2023-03-01T00:04:05;6.00;;;3.80;;
19291;SDS011;9779;51.756;7.450;2023-03-01T00:06:30;4.23;;;4.03;;
19291;SDS011;9779;51.756;7.450;2023-03-01T00:08:56;4.33;;;4.03;;
19291;SDS011;9779;51.756;7.450;2023-03-01T00:11:23;4.73;;;4.33;;
19291;SDS011;9779;51.756;7.450;2023-03-01T00:13:51;4.43;;;4.10;;
19291;SDS011;9779;51.756;7.450;2023-03-01T00:16:20;4.40;;;4.00;;
19291;SDS011;9779;51.756;7.450;2023-03-01T00:18:50;5.57;;;4.50;;
19291;SDS011;9779;51.756;7.450;2023-03-01T00:21:16;5.13;;;4.63;;
19291;SDS011;9779;51.756;7.450;2023-03-01T00:23:42;5.40;;;4.90;;
19291;SDS011;9779;51.756;7.450;2023-03-01T00:26:09;5.10;;;4.70;;
19291;SDS011;9779;51.756;7.450;2023-03-01T00:28:36;7.17;;;4.97;;
19291;SDS011;9779;51.756;7.450;2023-03-01T00:31:08;6.47;;;5.93;;
19291;SDS011;9779;51.756;7.450;2023-03-01T00:33:36;6.00;;;5.40;;
19291;SDS011;9779;51.756;7.450;2023-03-01T00:36:02;6.30;;;5.60;;
19291;SDS011;9779;51.756;7.450;2023-03-01T00:38:28;7.10;;;5.40;;
19291;SDS011;9779;51.756;7.450;2023-03-01T00:40:55;6.33;;;5.73;;
19291;SDS011;9779;51.756;7.450;2023-03-01T00:43:20;6.20;;;5.60;;
19291;SDS011;9779;51.756;7.450;2023-03-01T00:45:46;5.53;;;5.07;;
19291;SDS011;9779;51.756;7.450;2023-03-01T00:48:12;8.73;;;5.03;;
19291;SDS011;9779;51.756;7.450;2023-03-01T00:50:37;7.30;;;5.17;;
19291;SDS011;9779;51.756;7.450;2023-03-01T00:53:03;6.10;;;5.60;;
19291;SDS011;9779;51.756;7.450;2023-03-01T00:55:30;6.07;;;5.47;;
19291;SDS011;9779;51.756;7.450;2023-03-01T00:57:55;8.80;;;4.87;;
19291;SDS011;9779;51.756;7.450;2023-03-01T01:00:21;5.20;;;4.47;;
19291;SDS011;9779;51.756;7.450;2023-03-01T01:02:47;7.17;;;5.00;;
19291;SDS011;9779;51.756;7.450;2023-03-01T01:05:12;4.83;;;4.10;;
19291;SDS011;9779;51.756;7.450;2023-03-01T01:07:38;5.53;;;5.13;;
19291;SDS011;9779;51.756;7.450;2023-03-01T01:10:05;4.70;;;4.27;;
19291;SDS011;9779;51.756;7.450;2023-03-01T01:12:31;5.23;;;4.83;;
19291;SDS011;9779;51.756;7.450;2023-03-01T01:14:57;5.47;;;5.07;;
19291;SDS011;9779;51.756;7.450;2023-03-01T01:17:23;5.70;;;5.20;;
19291;SDS011;9779;51.756;7.450;2023-03-01T01:19:48;6.80;;;4.63;;
19291;SDS011;9779;51.756;7.450;2023-03-01T01:22:14;4.77;;;4.40;;
19291;SDS011;9779;51.756;7.450;2023-03-01T01:24:40;5.20;;;4.70;;
19291;SDS011;9779;51.756;7.450;2023-03-01T01:27:05;5.07;;;4.57;;
19291;SDS011;9779;51.756;7.450;2023-03-01T01:29:32;5.07;;;4.67;;
19291;SDS011;9779;51.756;7.450;2023-03-01T01:31:58;5.13;;;4.73;;
19291;SDS011;9779;51.756;7.450;2023-03-01T01:34:23;5.27;;;4.90;;
19291;SDS011;9779;51.756;7.450;2023-03-01T01:36:52;5.47;;;4.97;;
19291;SDS011;9779;51.756;7.450;2023-03-01T01:39:19;6.07;;;5.47;;
19291;SDS011;9779;51.756;7.450;2023-03-01T01:41:45;5.53;;;5.07;;
19291;SDS011;9779;51.756;7.450;2023-03-01T01:44:21;5.77;;;5.20;;
19291;SDS011;9779;51.756;7.450;2023-03-01T01:46:50;5.13;;;4.67;;
19291;SDS011;9779;51.756;7.450;2023-03-01T01:49:22;5.33;;;4.73;;
19291;SDS011;9779;51.756;7.450;2023-03-01T01:51:55;5.57;;;5.17;;
19291;SDS011;9779;51.756;7.450;2023-03-01T01:54:31;5.73;;;5.33;;
19291;SDS011;9779;51.756;7.450;2023-03-01T01:57:14;5.50;;;5.10;;
19291;SDS011;9779;51.756;7.450;2023-03-01T01:59:43;5.33;;;4.93;;
19291;SDS011;9779;51.756;7.450;2023-03-01T02:02:14;6.40;;;5.80;;
19291;SDS011;9779;51.756;7.450;2023-03-01T02:04:40;6.07;;;5.57;;
19291;SDS011;9779;51.756;7.450;2023-03-01T02:07:13;7.90;;;6.53;;
19291;SDS011;9779;51.756;7.450;2023-03-01T02:09:41;8.83;;;7.33;;
19291;SDS011;9779;51.756;7.450;2023-03-01T02:12:10;8.23;;;6.80;;
19291;SDS011;9779;51.756;7.450;2023-03-01T02:14:37;8.40;;;6.57;;
19291;SDS011;9779;51.756;7.450;2023-03-01T02:17:03;7.40;;;6.70;;
19291;SDS011;9779;51.756;7.450;2023-03-01T02:19:39;8.20;;;6.57;;
19291;SDS011;9779;51.756;7.450;2023-03-01T02:22:23;6.47;;;5.97;;
19291;SDS011;9779;51.756;7.450;2023-03-01T02:25:08;7.20;;;5.77;;
19291;SDS011;9779;51.756;7.450;2023-03-01T02:27:40;5.97;;;5.43;;
19291;SDS011;9779;51.756;7.450;2023-03-01T02:30:21;6.13;;;5.53;;
19291;SDS011;9779;51.756;7.450;2023-03-01T02:32:48;5.90;;;5.30;;
19291;SDS011;9779;51.756;7.450;2023-03-01T02:35:16;5.77;;;5.37;;
19291;SDS011;9779;51.756;7.450;2023-03-01T02:37:44;5.77;;;5.27;;
19291;SDS011;9779;51.756;7.450;2023-03-01T02:40:16;5.93;;;5.23;;
19291;SDS011;9779;51.756;7.450;2023-03-01T02:42:48;5.17;;;4.77;;
19291;SDS011;9779;51.756;7.450;2023-03-01T02:45:16;5.10;;;4.70;;
19291;SDS011;9779;51.756;7.450;2023-03-01T02:47:42;5.23;;;4.73;;
19291;SDS011;9779;51.756;7.450;2023-03-01T02:50:13;5.43;;;4.93;;
19291;SDS011;9779;51.756;7.450;2023-03-01T02:52:56;5.57;;;4.90;;
19291;SDS011;9779;51.756;7.450;2023-03-01T02:55:37;6.07;;;5.67;;
19291;SDS011;9779;51.756;7.450;2023-03-01T02:58:03;6.83;;;5.70;;
19291;SDS011;9779;51.756;7.450;2023-03-01T03:00:39;5.80;;;5.27;;
19291;SDS011;9779;51.756;7.450;2023-03-01T03:03:10;6.30;;;5.70;;
19291;SDS011;9779;51.756;7.450;2023-03-01T03:05:41;6.93;;;5.77;;
19291;SDS011;9779;51.756;7.450;2023-03-01T03:08:07;7.37;;;6.00;;
19291;SDS011;9779;51.756;7.450;2023-03-01T03:10:34;6.73;;;6.23;;
19291;SDS011;9779;51.756;7.450;2023-03-01T03:13:06;7.67;;;6.30;;
19291;SDS011;9779;51.756;7.450;2023-03-01T03:15:34;7.30;;;6.60;;
19291;SDS011;9779;51.756;7.450;2023-03-01T03:18:01;6.27;;;5.67;;
19291;SDS011;9779;51.756;7.450;2023-03-01T03:20:28;9.40;;;6.13;;
19291;SDS011;9779;51.756;7.450;2023-03-01T03:22:55;6.27;;;5.77;;
19291;SDS011;9779;51.756;7.450;2023-03-01T03:25:23;5.93;;;5.43;;
19291;SDS011;9779;51.756;7.450;2023-03-01T03:27:50;6.00;;;5.60;;
19291;SDS011;9779;51.756;7.450;2023-03-01T03:30:22;6.10;;;5.50;;
19291;SDS011;9779;51.756;7.450;2023-03-01T03:32:53;5.60;;;5.03;;
19291;SDS011;9779;51.756;7.450;2023-03-01T03:35:23;5.33;;;4.93;;
19291;SDS011;9779;51.756;7.450;2023-03-01T03:38:00;5.77;;;5.37;;
19291;SDS011;9779;51.756;7.450;2023-03-01T03:40:33;5.13;;;4.77;;
19291;SDS011;9779;51.756;7.450;2023-03-01T03:43:06;5.90;;;5.20;;
19291;SDS011;9779;51.756;7.450;2023-03-01T03:45:34;5.87;;;5.17;;
19291;SDS011;9779;51.756;7.450;2023-03-01T03:48:01;6.13;;;5.53;;
19291;SDS011;9779;51.756;7.450;2023-03-01T03:50:27;8.47;;;5.07;;
19291;SDS011;9779;51.756;7.450;2023-03-01T03:52:53;5.53;;;4.90;;
19291;SDS011;9779;51.756;7.450;2023-03-01T03:55:19;5.57;;;5.17;;
19291;SDS011;9779;51.756;7.450;2023-03-01T03:57:45;6.17;;;5.67;;
19291;SDS011;9779;51.756;7.450;2023-03-01T04:00:17;4.40;;;4.10;;
19291;SDS011;9779;51.756;7.450;2023-03-01T04:02:44;5.50;;;5.10;;
19291;SDS011;9779;51.756;7.450;2023-03-01T04:05:12;6.77;;;6.13;;
19291;SDS011;9779;51.756;7.450;2023-03-01T04:07:39;5.13;;;4.70;;
19291;SDS011;9779;51.756;7.450;2023-03-01T04:10:08;6.17;;;5.57;;
19291;SDS011;9779;51.756;7.450;2023-03-01T04:12:36;5.30;;;4.90;;
19291;SDS011;9779;51.756;7.450;2023-03-01T04:15:03;7.03;;;5.13;;
19291;SDS011;9779;51.756;7.450;2023-03-01T04:17:40;5.77;;;5.37;;
19291;SDS011;9779;51.756;7.450;2023-03-01T04:20:06;5.27;;;4.93;;
19291;SDS011;9779;51.756;7.450;2023-03-01T04:22:37;5.17;;;4.77;;
19291;SDS011;9779;51.756;7.450;2023-03-01T04:25:04;6.47;;;6.00;;
19291;SDS011;9779;51.756;7.450;2023-03-01T04:27:32;10.53;;;5.33;;
19291;SDS011;9779;51.756;7.450;2023-03-01T04:29:58;5.70;;;5.23;;
19291;SDS011;9779;51.756;7.450;2023-03-01T04:32:24;6.07;;;5.57;;
19291;SDS011;9779;51.756;7.450;2023-03-01T04:34:50;5.20;;;4.80;;
19291;SDS011;9779;51.756;7.450;2023-03-01T04:37:15;6.10;;;5.60;;
19291;SDS011;9779;51.756;7.450;2023-03-01T04:39:41;5.97;;;5.37;;
19291;SDS011;9779;51.756;7.450;2023-03-01T04:42:13;6.77;;;6.27;;
19291;SDS011;9779;51.756;7.450;2023-03-01T04:44:40;9.13;;;6.57;;
19291;SDS011;9779;51.756;7.450;2023-03-01T04:47:05;6.63;;;6.00;;
19291;SDS011;9779;51.756;7.450;2023-03-01T04:49:31;7.30;;;6.80;;
19291;SDS011;9779;51.756;7.450;2023-03-01T04:51:57;6.13;;;5.67;;
19291;SDS011;9779;51.756;7.450;2023-03-01T04:54:27;6.37;;;5.50;;
19291;SDS011;9779;51.756;7.450;2023-03-01T04:56:53;6.07;;;5.57;;
19291;SDS011;9779;51.756;7.450;2023-03-01T04:59:22;6.20;;;5.63;;
19291;SDS011;9779;51.756;7.450;2023-03-01T05:01:48;11.13;;;5.47;;
19291;SDS011;9779;51.756;7.450;2023-03-01T05:04:14;6.43;;;5.37;;
19291;SDS011;9779;51.756;7.450;2023-03-01T05:06:40;6.57;;;5.90;;
19291;SDS011;9779;51.756;7.450;2023-03-01T05:09:05;5.90;;;5.37;;
19291;SDS011;9779;51.756;7.450;2023-03-01T05:11:31;4.70;;;4.37;;
19291;SDS011;9779;51.756;7.450;2023-03-01T05:14:00;6.20;;;5.70;;
19291;SDS011;9779;51.756;7.450;2023-03-01T05:16:26;5.87;;;5.37;;
19291;SDS011;9779;51.756;7.450;2023-03-01T05:18:52;8.57;;;6.13;;
19291;SDS011;9779;51.756;7.450;2023-03-01T05:21:20;5.97;;;5.47;;
19291;SDS011;9779;51.756;7.450;2023-03-01T05:23:46;6.20;;;5.73;;
19291;SDS011;9779;51.756;7.450;2023-03-01T05:26:11;7.20;;;6.50;;
19291;SDS011;9779;51.756;7.450;2023-03-01T05:28:37;6.13;;;5.63;;
19291;SDS011;9779;51.756;7.450;2023-03-01T05:31:04;7.17;;;6.47;;
19291;SDS011;9779;51.756;7.450;2023-03-01T05:33:34;6.83;;;6.33;;
19291;SDS011;9779;51.756;7.450;2023-03-01T05:36:04;6.33;;;5.73;;
19291;SDS011;9779;51.756;7.450;2023-03-01T05:38:32;13.63;;;6.57;;
19291;SDS011;9779;51.756;7.450;2023-03-01T05:40:57;6.50;;;5.87;;
19291;SDS011;9779;51.756;7.450;2023-03-01T05:43:23;6.80;;;6.20;;
19291;SDS011;9779;51.756;7.450;2023-03-01T05:45:48;6.77;;;6.17;;
19291;SDS011;9779;51.756;7.450;2023-03-01T05:48:14;9.67;;;5.63;;
19291;SDS011;9779;51.756;7.450;2023-03-01T05:50:41;7.67;;;6.03;;
19291;SDS011;9779;51.756;7.450;2023-03-01T05:55:41;5.83;;;5.40;;
19291;SDS011;9779;51.756;7.450;2023-03-01T05:58:09;6.43;;;5.93;;
19291;SDS011;9779;51.756;7.450;2023-03-01T06:00:36;5.77;;;5.37;;
19291;SDS011;9779;51.756;7.450;2023-03-01T06:03:02;6.37;;;5.77;;
19291;SDS011;9779;51.756;7.450;2023-03-01T06:05:28;5.57;;;5.07;;
19291;SDS011;9779;51.756;7.450;2023-03-01T06:07:54;5.63;;;5.13;;
19291;SDS011;9779;51.756;7.450;2023-03-01T06:10:21;7.57;;;5.97;;
19291;SDS011;9779;51.756;7.450;2023-03-01T06:12:47;7.30;;;6.60;;
19291;SDS011;9779;51.756;7.450;2023-03-01T06:15:14;5.93;;;5.43;;
19291;SDS011;9779;51.756;7.450;2023-03-01T06:17:41;5.80;;;5.40;;
19291;SDS011;9779;51.756;7.450;2023-03-01T06:20:12;7.37;;;5.53;;
19291;SDS011;9779;51.756;7.450;2023-03-01T06:22:40;7.70;;;7.00;;
19291;SDS011;9779;51.756;7.450;2023-03-01T06:25:07;11.23;;;7.37;;
19291;SDS011;9779;51.756;7.450;2023-03-01T06:27:33;11.13;;;7.77;;
19291;SDS011;9779;51.756;7.450;2023-03-01T06:29:59;9.83;;;7.07;;
19291;SDS011;9779;51.756;7.450;2023-03-01T06:32:25;10.30;;;7.13;;
19291;SDS011;9779;51.756;7.450;2023-03-01T06:34:51;8.50;;;6.87;;
19291;SDS011;9779;51.756;7.450;2023-03-01T06:37:16;6.97;;;6.37;;
19291;SDS011;9779;51.756;7.450;2023-03-01T06:39:42;6.57;;;6.07;;
19291;SDS011;9779;51.756;7.450;2023-03-01T06:42:08;6.50;;;6.07;;
19291;SDS011;9779;51.756;7.450;2023-03-01T06:44:35;6.80;;;6.27;;
19291;SDS011;9779;51.756;7.450;2023-03-01T06:47:00;7.00;;;6.50;;
19291;SDS011;9779;51.756;7.450;2023-03-01T06:49:26;6.53;;;5.93;;
19291;SDS011;9779;51.756;7.450;2023-03-01T06:51:52;8.17;;;5.83;;
19291;SDS011;9779;51.756;7.450;2023-03-01T06:54:18;6.20;;;5.73;;
19291;SDS011;9779;51.756;7.450;2023-03-01T06:56:47;6.93;;;5.67;;
19291;SDS011;9779;51.756;7.450;2023-03-01T06:59:13;6.73;;;5.97;;
19291;SDS011;9779;51.756;7.450;2023-03-01T07:01:38;6.60;;;6.10;;
19291;SDS011;9779;51.756;7.450;2023-03-01T07:04:04;6.77;;;6.10;;
19291;SDS011;9779;51.756;7.450;2023-03-01T07:06:30;6.50;;;5.80;;
19291;SDS011;9779;51.756;7.450;2023-03-01T07:08:55;6.10;;;5.63;;
19291;SDS011;9779;51.756;7.450;2023-03-01T07:11:21;7.17;;;6.47;;
19291;SDS011;9779;51.756;7.450;2023-03-01T07:13:48;6.23;;;5.73;;
19291;SDS011;9779;51.756;7.450;2023-03-01T07:16:14;6.73;;;6.23;;
19291;SDS011;9779;51.756;7.450;2023-03-01T07:18:40;7.23;;;6.40;;
19291;SDS011;9779;51.756;7.450;2023-03-01T07:21:06;7.23;;;6.73;;
19291;SDS011;9779;51.756;7.450;2023-03-01T07:23:33;8.83;;;7.60;;
19291;SDS011;9779;51.756;7.450;2023-03-01T07:25:59;9.50;;;8.53;;
19291;SDS011;9779;51.756;7.450;2023-03-01T07:28:25;8.13;;;7.47;;
19291;SDS011;9779;51.756;7.450;2023-03-01T07:30:51;8.87;;;7.97;;
19291;SDS011;9779;51.756;7.450;2023-03-01T07:33:17;7.57;;;7.07;;
19291;SDS011;9779;51.756;7.450;2023-03-01T07:35:42;9.43;;;7.70;;
19291;SDS011;9779;51.756;7.450;2023-03-01T07:38:08;8.23;;;7.47;;
19291;SDS011;9779;51.756;7.450;2023-03-01T07:40:34;7.33;;;6.83;;
19291;SDS011;9779;51.756;7.450;2023-03-01T07:43:00;7.37;;;6.83;;
19291;SDS011;9779;51.756;7.450;2023-03-01T07:45:26;11.17;;;6.80;;
19291;SDS011;9779;51.756;7.450;2023-03-01T07:47:53;9.33;;;6.53;;
19291;SDS011;9779;51.756;7.450;2023-03-01T07:50:19;6.67;;;6.23;;
19291;SDS011;9779;51.756;7.450;2023-03-01T07:52:45;7.80;;;5.60;;
19291;SDS011;9779;51.756;7.450;2023-03-01T07:55:12;13.20;;;6.53;;
19291;SDS011;9779;51.756;7.450;2023-03-01T07:57:37;6.10;;;5.70;;
19291;SDS011;9779;51.756;7.450;2023-03-01T08:00:03;6.03;;;5.53;;
19291;SDS011;9779;51.756;7.450;2023-03-01T08:02:30;7.37;;;6.70;;
19291;SDS011;9779;51.756;7.450;2023-03-01T08:04:56;10.10;;;6.60;;
19291;SDS011;9779;51.756;7.450;2023-03-01T08:07:21;10.33;;;6.30;;
19291;SDS011;9779;51.756;7.450;2023-03-01T08:09:47;7.60;;;6.80;;
19291;SDS011;9779;51.756;7.450;2023-03-01T08:12:12;6.47;;;5.77;;
19291;SDS011;9779;51.756;7.450;2023-03-01T08:14:38;6.93;;;6.43;;
19291;SDS011;9779;51.756;7.450;2023-03-01T08:17:03;7.70;;;7.10;;
19291;SDS011;9779;51.756;7.450;2023-03-01T08:19:29;7.23;;;6.63;;
19291;SDS011;9779;51.756;7.450;2023-03-01T08:21:54;6.77;;;6.17;;
19291;SDS011;9779;51.756;7.450;2023-03-01T08:24:23;19.33;;;7.07;;
19291;SDS011;9779;51.756;7.450;2023-03-01T08:26:48;7.53;;;6.87;;
19291;SDS011;9779;51.756;7.450;2023-03-01T08:29:14;10.77;;;7.53;;
19291;SDS011;9779;51.756;7.450;2023-03-01T08:31:40;8.90;;;6.67;;
19291;SDS011;9779;51.756;7.450;2023-03-01T08:34:10;6.77;;;6.23;;
19291;SDS011;9779;51.756;7.450;2023-03-01T08:36:38;5.70;;;5.10;;
19291;SDS011;9779;51.756;7.450;2023-03-01T08:39:06;12.63;;;6.50;;
19291;SDS011;9779;51.756;7.450;2023-03-01T08:41:33;13.50;;;6.40;;
19291;SDS011;9779;51.756;7.450;2023-03-01T08:43:58;7.07;;;6.43;;
19291;SDS011;9779;51.756;7.450;2023-03-01T08:46:25;7.17;;;6.57;;
19291;SDS011;9779;51.756;7.450;2023-03-01T08:48:52;6.37;;;5.93;;
19291;SDS011;9779;51.756;7.450;2023-03-01T08:51:18;6.87;;;6.27;;
19291;SDS011;9779;51.756;7.450;2023-03-01T08:53:45;13.43;;;5.63;;
19291;SDS011;9779;51.756;7.450;2023-03-01T08:56:11;6.00;;;5.60;;
19291;SDS011;9779;51.756;7.450;2023-03-01T08:58:37;6.63;;;6.03;;
19291;SDS011;9779;51.756;7.450;2023-03-01T09:01:13;6.57;;;5.33;;
19291;SDS011;9779;51.756;7.450;2023-03-01T09:03:40;6.63;;;5.73;;
19291;SDS011;9779;51.756;7.450;2023-03-01T09:06:07;9.80;;;6.23;;
19291;SDS011;9779;51.756;7.450;2023-03-01T09:08:34;7.07;;;5.47;;
19291;SDS011;9779;51.756;7.450;2023-03-01T09:11:04;10.27;;;5.70;;
19291;SDS011;9779;51.756;7.450;2023-03-01T09:13:32;10.77;;;5.77;;
19291;SDS011;9779;51.756;7.450;2023-03-01T09:15:58;8.93;;;5.80;;
19291;SDS011;9779;51.756;7.450;2023-03-01T09:18:26;7.27;;;5.73;;
19291;SDS011;9779;51.756;7.450;2023-03-01T09:20:51;11.00;;;5.80;;
19291;SDS011;9779;51.756;7.450;2023-03-01T09:23:19;5.70;;;5.27;;
19291;SDS011;9779;51.756;7.450;2023-03-01T09:25:46;6.07;;;5.57;;
19291;SDS011;9779;51.756;7.450;2023-03-01T09:28:11;7.67;;;5.47;;
19291;SDS011;9779;51.756;7.450;2023-03-01T09:30:37;6.47;;;5.83;;
19291;SDS011;9779;51.756;7.450;2023-03-01T09:33:02;10.63;;;5.07;;
19291;SDS011;9779;51.756;7.450;2023-03-01T09:35:28;6.63;;;5.93;;
19291;SDS011;9779;51.756;7.450;2023-03-01T09:37:54;7.10;;;5.67;;
19291;SDS011;9779;51.756;7.450;2023-03-01T09:40:20;5.70;;;5.20;;
19291;SDS011;9779;51.756;7.450;2023-03-01T09:42:57;5.77;;;5.20;;
19291;SDS011;9779;51.756;7.450;2023-03-01T09:45:33;6.13;;;5.53;;
19291;SDS011;9779;51.756;7.450;2023-03-01T09:48:02;6.67;;;5.83;;
19291;SDS011;9779;51.756;7.450;2023-03-01T09:50:35;6.73;;;6.10;;
19291;SDS011;9779;51.756;7.450;2023-03-01T09:55:33;7.90;;;6.80;;
19291;SDS011;9779;51.756;7.450;2023-03-01T10:01:09;6.77;;;5.17;;
19291;SDS011;9779;51.756;7.450;2023-03-01T10:04:04;7.23;;;5.60;;
19291;SDS011;9779;51.756;7.450;2023-03-01T10:07:07;5.80;;;5.30;;
19291;SDS011;9779;51.756;7.450;2023-03-01T10:09:49;8.23;;;3.87;;
19291;SDS011;9779;51.756;7.450;2023-03-01T10:12:16;5.87;;;5.00;;
19291;SDS011;9779;51.756;7.450;2023-03-01T10:19:57;7.67;;;5.80;;
19291;SDS011;9779;51.756;7.450;2023-03-01T10:22:50;6.27;;;5.30;;
19291;SDS011;9779;51.756;7.450;2023-03-01T10:28:16;5.83;;;5.43;;
19291;SDS011;9779;51.756;7.450;2023-03-01T10:30:45;5.40;;;5.00;;
19291;SDS011;9779;51.756;7.450;2023-03-01T10:33:21;6.53;;;5.73;;
19291;SDS011;9779;51.756;7.450;2023-03-01T10:35:50;9.83;;;6.53;;
19291;SDS011;9779;51.756;7.450;2023-03-01T10:38:16;6.77;;;6.27;;
19291;SDS011;9779;51.756;7.450;2023-03-01T10:43:50;6.67;;;5.90;;
19291;SDS011;9779;51.756;7.450;2023-03-01T10:51:40;7.47;;;5.87;;
19291;SDS011;9779;51.756;7.450;2023-03-01T10:54:15;6.93;;;6.23;;
19291;SDS011;9779;51.756;7.450;2023-03-01T10:56:52;8.53;;;7.60;;
19291;SDS011;9779;51.756;7.450;2023-03-01T10:59:22;8.30;;;7.60;;
19291;SDS011;9779;51.756;7.450;2023-03-01T11:02:17;6.07;;;5.57;;
19291;SDS011;9779;51.756;7.450;2023-03-01T11:07:56;5.80;;;5.40;;
19291;SDS011;9779;51.756;7.450;2023-03-01T11:10:27;6.20;;;5.17;;
19291;SDS011;9779;51.756;7.450;2023-03-01T11:13:16;7.07;;;6.43;;
19291;SDS011;9779;51.756;7.450;2023-03-01T11:15:43;6.43;;;5.97;;
19291;SDS011;9779;51.756;7.450;2023-03-01T11:18:27;6.80;;;5.87;;
19291;SDS011;9779;51.756;7.450;2023-03-01T11:20:54;5.90;;;4.93;;
19291;SDS011;9779;51.756;7.450;2023-03-01T11:23:22;7.07;;;6.40;;
19291;SDS011;9779;51.756;7.450;2023-03-01T11:25:50;6.77;;;6.17;;
19291;SDS011;9779;51.756;7.450;2023-03-01T11:28:20;6.87;;;6.27;;
19291;SDS011;9779;51.756;7.450;2023-03-01T11:31:06;5.80;;;5.40;;
19291;SDS011;9779;51.756;7.450;2023-03-01T11:36:31;7.97;;;6.00;;
19291;SDS011;9779;51.756;7.450;2023-03-01T11:41:51;6.30;;;5.90;;
19291;SDS011;9779;51.756;7.450;2023-03-01T11:44:27;6.37;;;5.73;;
19291;SDS011;9779;51.756;7.450;2023-03-01T11:54:58;23.30;;;11.97;;
19291;SDS011;9779;51.756;7.450;2023-03-01T12:03:29;13.00;;;5.97;;
19291;SDS011;9779;51.756;7.450;2023-03-01T12:08:55;7.73;;;6.73;;
19291;SDS011;9779;51.756;7.450;2023-03-01T12:25:33;6.97;;;6.37;;
19291;SDS011;9779;51.756;7.450;2023-03-01T12:28:39;6.37;;;5.87;;
19291;SDS011;9779;51.756;7.450;2023-03-01T12:31:38;6.90;;;6.30;;
19291;SDS011;9779;51.756;7.450;2023-03-01T12:42:35;6.90;;;6.40;;
19291;SDS011;9779;51.756;7.450;2023-03-01T12:48:25;6.30;;;5.90;;
19291;SDS011;9779;51.756;7.450;2023-03-01T12:51:01;7.13;;;6.53;;
19291;SDS011;9779;51.756;7.450;2023-03-01T12:53:32;7.00;;;6.40;;
19291;SDS011;9779;51.756;7.450;2023-03-01T12:56:05;6.83;;;6.43;;
19291;SDS011;9779;51.756;7.450;2023-03-01T12:58:39;7.23;;;6.63;;
19291;SDS011;9779;51.756;7.450;2023-03-01T13:01:36;7.67;;;6.43;;
19291;SDS011;9779;51.756;7.450;2023-03-01T13:07:27;7.33;;;6.63;;
19291;SDS011;9779;51.756;7.450;2023-03-01T13:13:09;7.90;;;7.20;;
19291;SDS011;9779;51.756;7.450;2023-03-01T13:15:39;7.33;;;6.80;;
19291;SDS011;9779;51.756;7.450;2023-03-01T13:20:45;6.67;;;6.07;;
19291;SDS011;9779;51.756;7.450;2023-03-01T13:28:35;6.50;;;6.00;;
19291;SDS011;9779;51.756;7.450;2023-03-01T13:33:45;6.60;;;6.07;;
19291;SDS011;9779;51.756;7.450;2023-03-01T13:41:48;6.17;;;5.57;;
19291;SDS011;9779;51.756;7.450;2023-03-01T13:44:37;8.40;;;7.70;;
19291;SDS011;9779;51.756;7.450;2023-03-01T13:47:07;6.57;;;5.97;;
19291;SDS011;9779;51.756;7.450;2023-03-01T13:49:56;7.13;;;6.43;;
19291;SDS011;9779;51.756;7.450;2023-03-01T13:57:39;6.63;;;6.00;;
19291;SDS011;9779;51.756;7.450;2023-03-01T14:00:24;6.80;;;6.20;;
19291;SDS011;9779;51.756;7.450;2023-03-01T14:02:59;6.83;;;6.10;;
19291;SDS011;9779;51.756;7.450;2023-03-01T14:05:35;8.60;;;7.70;;
19291;SDS011;9779;51.756;7.450;2023-03-01T14:08:02;9.20;;;8.10;;
19291;SDS011;9779;51.756;7.450;2023-03-01T14:13:48;8.83;;;5.73;;
19291;SDS011;9779;51.756;7.450;2023-03-01T14:16:23;7.63;;;6.30;;
19291;SDS011;9779;51.756;7.450;2023-03-01T14:19:05;6.83;;;6.20;;
19291;SDS011;9779;51.756;7.450;2023-03-01T14:21:44;8.70;;;7.90;;
19291;SDS011;9779;51.756;7.450;2023-03-01T14:24:21;7.57;;;6.83;;
19291;SDS011;9779;51.756;7.450;2023-03-01T14:26:47;6.53;;;5.93;;
19291;SDS011;9779;51.756;7.450;2023-03-01T14:29:24;6.70;;;6.10;;
19291;SDS011;9779;51.756;7.450;2023-03-01T14:32:27;6.67;;;6.17;;
19291;SDS011;9779;51.756;7.450;2023-03-01T14:34:54;26.80;;;21.63;;
19291;SDS011;9779;51.756;7.450;2023-03-01T14:37:33;31.77;;;20.83;;
19291;SDS011;9779;51.756;7.450;2023-03-01T14:40:00;10.30;;;9.40;;
19291;SDS011;9779;51.756;7.450;2023-03-01T14:42:28;6.60;;;6.10;;
19291;SDS011;9779;51.756;7.450;2023-03-01T14:44:56;6.73;;;6.23;;
19291;SDS011;9779;51.756;7.450;2023-03-01T14:47:28;7.30;;;6.33;;
19291;SDS011;9779;51.756;7.450;2023-03-01T14:50:00;5.97;;;5.57;;
19291;SDS011;9779;51.756;7.450;2023-03-01T14:52:34;5.80;;;5.30;;
19291;SDS011;9779;51.756;7.450;2023-03-01T14:58:11;6.87;;;5.23;;
19291;SDS011;9779;51.756;7.450;2023-03-01T15:00:38;5.93;;;5.03;;
19291;SDS011;9779;51.756;7.450;2023-03-01T15:03:11;8.40;;;5.30;;
19291;SDS011;9779;51.756;7.450;2023-03-01T15:05:40;5.50;;;5.00;;
19291;SDS011;9779;51.756;7.450;2023-03-01T15:08:08;5.27;;;4.87;;
19291;SDS011;9779;51.756;7.450;2023-03-01T15:10:54;6.07;;;5.57;;
19291;SDS011;9779;51.756;7.450;2023-03-01T15:13:25;6.77;;;5.43;;
19291;SDS011;9779;51.756;7.450;2023-03-01T15:16:00;6.13;;;5.53;;
19291;SDS011;9779;51.756;7.450;2023-03-01T15:18:33;5.57;;;5.07;;
19291;SDS011;9779;51.756;7.450;2023-03-01T15:21:08;5.07;;;4.67;;
19291;SDS011;9779;51.756;7.450;2023-03-01T15:23:38;6.03;;;5.53;;
19291;SDS011;9779;51.756;7.450;2023-03-01T15:26:05;6.10;;;5.47;;
19291;SDS011;9779;51.756;7.450;2023-03-01T15:28:34;14.10;;;8.53;;
19291;SDS011;9779;51.756;7.450;2023-03-01T15:31:27;6.70;;;6.00;;
19291;SDS011;9779;51.756;7.450;2023-03-01T15:36:48;4.50;;;4.20;;
19291;SDS011;9779;51.756;7.450;2023-03-01T15:39:27;5.60;;;5.20;;
19291;SDS011;9779;51.756;7.450;2023-03-01T15:41:55;4.63;;;4.27;;
19291;SDS011;9779;51.756;7.450;2023-03-01T15:44:28;4.60;;;4.30;;
19291;SDS011;9779;51.756;7.450;2023-03-01T15:46:54;13.27;;;4.63;;
19291;SDS011;9779;51.756;7.450;2023-03-01T15:52:28;6.87;;;6.27;;
19291;SDS011;9779;51.756;7.450;2023-03-01T15:55:00;5.17;;;4.57;;
19291;SDS011;9779;51.756;7.450;2023-03-01T15:57:28;6.03;;;5.43;;
19291;SDS011;9779;51.756;7.450;2023-03-01T15:59:53;5.53;;;5.03;;
19291;SDS011;9779;51.756;7.450;2023-03-01T16:02:19;4.53;;;4.13;;
19291;SDS011;9779;51.756;7.450;2023-03-01T16:04:46;5.07;;;4.73;;
19291;SDS011;9779;51.756;7.450;2023-03-01T16:07:13;7.73;;;7.00;;
19291;SDS011;9779;51.756;7.450;2023-03-01T16:09:39;5.53;;;5.13;;
19291;SDS011;9779;51.756;7.450;2023-03-01T16:12:08;5.37;;;4.97;;
19291;SDS011;9779;51.756;7.450;2023-03-01T16:14:38;5.60;;;5.10;;
19291;SDS011;9779;51.756;7.450;2023-03-01T16:17:04;5.80;;;5.30;;
19291;SDS011;9779;51.756;7.450;2023-03-01T16:19:30;5.90;;;4.83;;
19291;SDS011;9779;51.756;7.450;2023-03-01T16:21:55;7.43;;;5.00;;
19291;SDS011;9779;51.756;7.450;2023-03-01T16:24:21;5.37;;;4.97;;
19291;SDS011;9779;51.756;7.450;2023-03-01T16:26:46;5.93;;;5.40;;
19291;SDS011;9779;51.756;7.450;2023-03-01T16:29:12;10.33;;;4.93;;
19291;SDS011;9779;51.756;7.450;2023-03-01T16:31:37;4.50;;;4.20;;
19291;SDS011;9779;51.756;7.450;2023-03-01T16:34:03;7.83;;;5.23;;
19291;SDS011;9779;51.756;7.450;2023-03-01T16:36:29;6.00;;;5.40;;
19291;SDS011;9779;51.756;7.450;2023-03-01T16:38:57;5.67;;;5.27;;
19291;SDS011;9779;51.756;7.450;2023-03-01T16:41:25;6.07;;;5.67;;
19291;SDS011;9779;51.756;7.450;2023-03-01T16:43:52;7.27;;;6.57;;
19291;SDS011;9779;51.756;7.450;2023-03-01T16:46:19;10.07;;;9.10;;
19291;SDS011;9779;51.756;7.450;2023-03-01T16:48:47;11.33;;;10.23;;
19291;SDS011;9779;51.756;7.450;2023-03-01T16:51:13;9.43;;;8.57;;
19291;SDS011;9779;51.756;7.450;2023-03-01T16:53:39;8.33;;;6.80;;
19291;SDS011;9779;51.756;7.450;2023-03-01T16:56:06;9.97;;;8.87;;
19291;SDS011;9779;51.756;7.450;2023-03-01T16:58:34;9.83;;;8.97;;
19291;SDS011;9779;51.756;7.450;2023-03-01T17:01:04;9.50;;;8.53;;
19291;SDS011;9779;51.756;7.450;2023-03-01T17:03:32;7.80;;;5.90;;
19291;SDS011;9779;51.756;7.450;2023-03-01T17:06:00;6.50;;;5.90;;
19291;SDS011;9779;51.756;7.450;2023-03-01T17:08:27;8.23;;;6.33;;
19291;SDS011;9779;51.756;7.450;2023-03-01T17:10:53;7.10;;;6.53;;